sensor_id;sensor_type;location;lat;lon;timestamp;P1;durP1;ratioP1;P2;durP2;ratioP2
79005;SDS011;69202;45.498;-73.582;2023-06-19T00:01:18;9.82;;;7.80;;
79005;SDS011;69202;45.498;-73.582;2023-06-19T00:03:44;7.57;;;6.57;;
79005;SDS011;69202;45.498;-73.582;2023-06-19T00:06:10;8.13;;;6.13;;
79005;SDS011;69202;45.498;-73.582;2023-06-19T00:08:37;9.07;;;6.68;;
79005;SDS011;69202;45.498;-73.582;2023-06-19T00:11:06;8.98;;;6.25;;
79005;SDS011;69202;45.498;-73.582;2023-06-19T00:13:32;7.82;;;4.78;;
79005;SDS011;69202;45.498;-73.582;2023-06-19T00:15:59;5.15;;;4.65;;
79005;SDS011;69202;45.498;-73.582;2023-06-19T00:18:26;7.15;;;5.35;;
79005;SDS011;69202;45.498;-73.582;2023-06-19T00:20:52;9.48;;;6.13;;
79005;SDS011;69202;45.498;-73.582;2023-06-19T00:23:21;7.28;;;5.93;;
79005;SDS011;69202;45.498;-73.582;2023-06-19T00:25:48;9.65;;;6.35;;
79005;SDS011;69202;45.498;-73.582;2023-06-19T00:28:14;9.43;;;6.65;;
79005;SDS011;69202;45.498;-73.582;2023-06-19T00:30:40;7.82;;;6.40;;
79005;SDS011;69202;45.498;-73.582;2023-06-19T00:33:07;7.78;;;5.57;;
79005;SDS011;69202;45.498;-73.582;2023-06-19T00:35:33;8.02;;;4.50;;
79005;SDS011;69202;45.498;-73.582;2023-06-19T00:37:59;8.35;;;5.95;;
79005;SDS011;69202;45.498;-73.582;2023-06-19T00:40:32;6.65;;;5.60;;
79005;SDS011;69202;45.498;-73.582;2023-06-19T00:42:59;6.07;;;5.20;;
79005;SDS011;69202;45.498;-73.582;2023-06-19T00:45:25;5.30;;;3.90;;
79005;SDS011;69202;45.498;-73.582;2023-06-19T00:47:55;10.90;;;5.03;;
79005;SDS011;69202;45.498;-73.582;2023-06-19T00:50:22;9.25;;;7.05;;
79005;SDS011;69202;45.498;-73.582;2023-06-19T00:52:48;8.07;;;5.95;;
79005;SDS011;69202;45.498;-73.582;2023-06-19T00:55:15;8.05;;;6.00;;
79005;SDS011;69202;45.498;-73.582;2023-06-19T00:57:42;7.35;;;5.70;;
79005;SDS011;69202;45.498;-73.582;2023-06-19T01:00:09;7.10;;;4.95;;
79005;SDS011;69202;45.498;-73.582;2023-06-19T01:02:37;9.35;;;6.60;;
79005;SDS011;69202;45.498;-73.582;2023-06-19T01:05:04;7.43;;;5.00;;
79005;SDS011;69202;45.498;-73.582;2023-06-19T01:10:06;6.57;;;4.07;;
79005;SDS011;69202;45.498;-73.582;2023-06-19T01:12:37;5.35;;;3.90;;
79005;SDS011;69202;45.498;-73.582;2023-06-19T01:15:19;8.60;;;5.35;;
79005;SDS011;69202;45.498;-73.582;2023-06-19T01:17:47;5.85;;;4.38;;
79005;SDS011;69202;45.498;-73.582;2023-06-19T01:20:14;7.72;;;4.65;;
79005;SDS011;69202;45.498;-73.582;2023-06-19T01:22:41;7.05;;;5.00;;
79005;SDS011;69202;45.498;-73.582;2023-06-19T01:25:10;5.40;;;3.83;;
79005;SDS011;69202;45.498;-73.582;2023-06-19T01:27:39;7.00;;;5.30;;
79005;SDS011;69202;45.498;-73.582;2023-06-19T01:30:07;5.47;;;3.83;;
79005;SDS011;69202;45.498;-73.582;2023-06-19T01:35:13;4.18;;;3.00;;
79005;SDS011;69202;45.498;-73.582;2023-06-19T01:37:42;4.20;;;3.35;;
79005;SDS011;69202;45.498;-73.582;2023-06-19T01:40:10;4.55;;;3.15;;
79005;SDS011;69202;45.498;-73.582;2023-06-19T01:42:37;4.25;;;3.00;;
79005;SDS011;69202;45.498;-73.582;2023-06-19T01:45:05;5.72;;;2.63;;
79005;SDS011;69202;45.498;-73.582;2023-06-19T01:47:32;4.40;;;2.75;;
79005;SDS011;69202;45.498;-73.582;2023-06-19T01:49:58;4.30;;;3.13;;
79005;SDS011;69202;45.498;-73.582;2023-06-19T01:52:24;9.00;;;4.05;;
79005;SDS011;69202;45.498;-73.582;2023-06-19T01:54:50;8.13;;;3.33;;
79005;SDS011;69202;45.498;-73.582;2023-06-19T01:57:17;6.25;;;2.60;;
79005;SDS011;69202;45.498;-73.582;2023-06-19T01:59:43;4.13;;;2.60;;
79005;SDS011;69202;45.498;-73.582;2023-06-19T02:02:09;3.83;;;2.35;;
79005;SDS011;69202;45.498;-73.582;2023-06-19T02:04:35;3.97;;;3.20;;
79005;SDS011;69202;45.498;-73.582;2023-06-19T02:07:01;7.47;;;5.15;;
79005;SDS011;69202;45.498;-73.582;2023-06-19T02:09:27;6.13;;;4.30;;
79005;SDS011;69202;45.498;-73.582;2023-06-19T02:11:53;5.05;;;2.47;;
79005;SDS011;69202;45.498;-73.582;2023-06-19T02:14:19;5.10;;;2.90;;
79005;SDS011;69202;45.498;-73.582;2023-06-19T02:16:45;2.88;;;1.90;;
79005;SDS011;69202;45.498;-73.582;2023-06-19T02:19:10;2.92;;;2.17;;
79005;SDS011;69202;45.498;-73.582;2023-06-19T02:21:37;5.15;;;2.20;;
79005;SDS011;69202;45.498;-73.582;2023-06-19T02:24:03;6.93;;;2.38;;
79005;SDS011;69202;45.498;-73.582;2023-06-19T02:26:29;4.80;;;2.28;;
79005;SDS011;69202;45.498;-73.582;2023-06-19T02:28:55;5.10;;;2.47;;
79005;SDS011;69202;45.498;-73.582;2023-06-19T02:31:22;3.15;;;1.40;;
79005;SDS011;69202;45.498;-73.582;2023-06-19T02:33:48;2.17;;;1.75;;
79005;SDS011;69202;45.498;-73.582;2023-06-19T02:36:14;3.78;;;1.90;;
79005;SDS011;69202;45.498;-73.582;2023-06-19T02:38:47;1.60;;;1.45;;
79005;SDS011;69202;45.498;-73.582;2023-06-19T02:41:16;2.05;;;1.45;;
79005;SDS011;69202;45.498;-73.582;2023-06-19T02:43:44;1.73;;;1.60;;
79005;SDS011;69202;45.498;-73.582;2023-06-19T02:46:13;4.03;;;2.17;;
79005;SDS011;69202;45.498;-73.582;2023-06-19T02:48:39;2.80;;;1.67;;
79005;SDS011;69202;45.498;-73.582;2023-06-19T02:51:05;6.32;;;2.70;;
79005;SDS011;69202;45.498;-73.582;2023-06-19T02:53:31;3.90;;;1.95;;
79005;SDS011;69202;45.498;-73.582;2023-06-19T02:55:57;3.67;;;2.08;;
79005;SDS011;69202;45.498;-73.582;2023-06-19T02:58:23;4.25;;;2.03;;
79005;SDS011;69202;45.498;-73.582;2023-06-19T03:00:51;2.60;;;1.55;;
79005;SDS011;69202;45.498;-73.582;2023-06-19T03:03:16;3.28;;;1.98;;
79005;SDS011;69202;45.498;-73.582;2023-06-19T03:05:42;2.30;;;1.35;;
79005;SDS011;69202;45.498;-73.582;2023-06-19T03:08:08;4.32;;;1.70;;
79005;SDS011;69202;45.498;-73.582;2023-06-19T03:10:34;1.75;;;1.10;;
79005;SDS011;69202;45.498;-73.582;2023-06-19T03:13:00;3.05;;;1.40;;
79005;SDS011;69202;45.498;-73.582;2023-06-19T03:15:26;4.28;;;1.27;;
79005;SDS011;69202;45.498;-73.582;2023-06-19T03:17:52;3.53;;;1.50;;
79005;SDS011;69202;45.498;-73.582;2023-06-19T03:20:18;5.32;;;1.52;;
79005;SDS011;69202;45.498;-73.582;2023-06-19T03:22:45;5.82;;;1.30;;
79005;SDS011;69202;45.498;-73.582;2023-06-19T03:25:11;3.17;;;1.38;;
79005;SDS011;69202;45.498;-73.582;2023-06-19T03:27:37;2.85;;;1.33;;
79005;SDS011;69202;45.498;-73.582;2023-06-19T03:30:04;1.85;;;1.25;;
79005;SDS011;69202;45.498;-73.582;2023-06-19T03:32:32;2.05;;;1.38;;
79005;SDS011;69202;45.498;-73.582;2023-06-19T03:34:58;3.28;;;1.30;;
79005;SDS011;69202;45.498;-73.582;2023-06-19T03:37:25;3.40;;;1.52;;
79005;SDS011;69202;45.498;-73.582;2023-06-19T03:39:51;4.35;;;1.50;;
79005;SDS011;69202;45.498;-73.582;2023-06-19T03:42:16;3.47;;;1.42;;
79005;SDS011;69202;45.498;-73.582;2023-06-19T03:44:42;2.65;;;1.20;;
79005;SDS011;69202;45.498;-73.582;2023-06-19T03:47:08;6.95;;;1.88;;
79005;SDS011;69202;45.498;-73.582;2023-06-19T03:49:34;6.88;;;1.60;;
79005;SDS011;69202;45.498;-73.582;2023-06-19T03:52:00;5.30;;;1.85;;
79005;SDS011;69202;45.498;-73.582;2023-06-19T03:54:27;4.38;;;1.80;;
79005;SDS011;69202;45.498;-73.582;2023-06-19T03:56:53;3.13;;;1.80;;
79005;SDS011;69202;45.498;-73.582;2023-06-19T03:59:18;2.85;;;1.95;;
79005;SDS011;69202;45.498;-73.582;2023-06-19T04:01:44;3.42;;;1.80;;
79005;SDS011;69202;45.498;-73.582;2023-06-19T04:04:10;5.25;;;1.77;;
79005;SDS011;69202;45.498;-73.582;2023-06-19T04:06:36;3.65;;;1.50;;
79005;SDS011;69202;45.498;-73.582;2023-06-19T04:09:02;2.53;;;1.25;;
79005;SDS011;69202;45.498;-73.582;2023-06-19T04:11:28;2.30;;;1.20;;
79005;SDS011;69202;45.498;-73.582;2023-06-19T04:13:54;7.57;;;1.30;;
79005;SDS011;69202;45.498;-73.582;2023-06-19T04:16:20;2.70;;;1.35;;
79005;SDS011;69202;45.498;-73.582;2023-06-19T04:18:46;1.60;;;1.10;;
79005;SDS011;69202;45.498;-73.582;2023-06-19T04:21:12;2.30;;;1.00;;
79005;SDS011;69202;45.498;-73.582;2023-06-19T04:23:37;5.20;;;1.02;;
79005;SDS011;69202;45.498;-73.582;2023-06-19T04:26:03;3.25;;;1.20;;
79005;SDS011;69202;45.498;-73.582;2023-06-19T04:28:29;2.22;;;1.08;;
79005;SDS011;69202;45.498;-73.582;2023-06-19T04:30:55;4.05;;;0.98;;
79005;SDS011;69202;45.498;-73.582;2023-06-19T04:33:28;5.28;;;1.30;;
79005;SDS011;69202;45.498;-73.582;2023-06-19T04:35:55;4.70;;;1.00;;
79005;SDS011;69202;45.498;-73.582;2023-06-19T04:38:21;4.00;;;1.30;;
79005;SDS011;69202;45.498;-73.582;2023-06-19T04:40:50;3.33;;;1.52;;
79005;SDS011;69202;45.498;-73.582;2023-06-19T04:43:16;2.85;;;1.30;;
79005;SDS011;69202;45.498;-73.582;2023-06-19T04:45:42;8.63;;;1.60;;
79005;SDS011;69202;45.498;-73.582;2023-06-19T04:48:08;3.17;;;1.35;;
79005;SDS011;69202;45.498;-73.582;2023-06-19T04:50:34;5.50;;;1.35;;
79005;SDS011;69202;45.498;-73.582;2023-06-19T04:53:00;4.07;;;1.60;;
79005;SDS011;69202;45.498;-73.582;2023-06-19T04:55:26;1.05;;;0.98;;
79005;SDS011;69202;45.498;-73.582;2023-06-19T04:57:52;3.33;;;1.15;;
79005;SDS011;69202;45.498;-73.582;2023-06-19T05:00:18;1.83;;;1.10;;
79005;SDS011;69202;45.498;-73.582;2023-06-19T05:02:45;5.20;;;0.98;;
79005;SDS011;69202;45.498;-73.582;2023-06-19T05:05:12;4.30;;;1.10;;
79005;SDS011;69202;45.498;-73.582;2023-06-19T05:07:39;5.32;;;1.10;;
79005;SDS011;69202;45.498;-73.582;2023-06-19T05:10:05;3.28;;;1.00;;
79005;SDS011;69202;45.498;-73.582;2023-06-19T05:12:33;5.70;;;1.52;;
79005;SDS011;69202;45.498;-73.582;2023-06-19T05:15:02;5.82;;;1.83;;
79005;SDS011;69202;45.498;-73.582;2023-06-19T05:17:28;5.25;;;1.40;;
79005;SDS011;69202;45.498;-73.582;2023-06-19T05:19:54;7.18;;;1.75;;
79005;SDS011;69202;45.498;-73.582;2023-06-19T05:22:20;8.27;;;1.13;;
79005;SDS011;69202;45.498;-73.582;2023-06-19T05:24:47;4.00;;;1.55;;
79005;SDS011;69202;45.498;-73.582;2023-06-19T05:27:13;4.88;;;1.20;;
79005;SDS011;69202;45.498;-73.582;2023-06-19T05:29:38;8.52;;;1.42;;
79005;SDS011;69202;45.498;-73.582;2023-06-19T05:32:04;2.53;;;1.20;;
79005;SDS011;69202;45.498;-73.582;2023-06-19T05:34:31;2.13;;;0.82;;
79005;SDS011;69202;45.498;-73.582;2023-06-19T05:36:57;5.38;;;1.23;;
79005;SDS011;69202;45.498;-73.582;2023-06-19T05:39:26;1.75;;;0.77;;
79005;SDS011;69202;45.498;-73.582;2023-06-19T05:41:51;2.17;;;1.15;;
79005;SDS011;69202;45.498;-73.582;2023-06-19T05:44:17;3.25;;;1.20;;
79005;SDS011;69202;45.498;-73.582;2023-06-19T05:46:44;1.45;;;0.85;;
79005;SDS011;69202;45.498;-73.582;2023-06-19T05:49:10;1.33;;;1.10;;
79005;SDS011;69202;45.498;-73.582;2023-06-19T05:51:36;2.22;;;1.05;;
79005;SDS011;69202;45.498;-73.582;2023-06-19T05:54:02;2.78;;;1.00;;
79005;SDS011;69202;45.498;-73.582;2023-06-19T05:56:32;3.58;;;1.08;;
79005;SDS011;69202;45.498;-73.582;2023-06-19T05:58:59;4.00;;;1.10;;
79005;SDS011;69202;45.498;-73.582;2023-06-19T06:01:26;2.03;;;1.00;;
79005;SDS011;69202;45.498;-73.582;2023-06-19T06:03:55;1.33;;;0.80;;
79005;SDS011;69202;45.498;-73.582;2023-06-19T06:06:24;2.83;;;1.50;;
79005;SDS011;69202;45.498;-73.582;2023-06-19T06:08:51;2.95;;;1.30;;
79005;SDS011;69202;45.498;-73.582;2023-06-19T06:11:17;3.95;;;1.15;;
79005;SDS011;69202;45.498;-73.582;2023-06-19T06:13:43;1.73;;;1.00;;
79005;SDS011;69202;45.498;-73.582;2023-06-19T06:16:09;4.50;;;1.13;;
79005;SDS011;69202;45.498;-73.582;2023-06-19T06:18:35;3.83;;;1.02;;
79005;SDS011;69202;45.498;-73.582;2023-06-19T06:21:01;1.25;;;1.00;;
79005;SDS011;69202;45.498;-73.582;2023-06-19T06:23:27;2.35;;;1.10;;
79005;SDS011;69202;45.498;-73.582;2023-06-19T06:25:53;3.13;;;1.35;;
79005;SDS011;69202;45.498;-73.582;2023-06-19T06:28:22;1.42;;;1.00;;
79005;SDS011;69202;45.498;-73.582;2023-06-19T06:30:48;3.40;;;0.98;;
79005;SDS011;69202;45.498;-73.582;2023-06-19T06:33:13;2.47;;;1.17;;
79005;SDS011;69202;45.498;-73.582;2023-06-19T06:35:39;1.33;;;1.00;;
79005;SDS011;69202;45.498;-73.582;2023-06-19T06:38:05;3.28;;;1.10;;
79005;SDS011;69202;45.498;-73.582;2023-06-19T06:40:31;3.03;;;1.33;;
79005;SDS011;69202;45.498;-73.582;2023-06-19T06:42:57;2.40;;;1.10;;
79005;SDS011;69202;45.498;-73.582;2023-06-19T06:45:23;1.20;;;1.00;;
79005;SDS011;69202;45.498;-73.582;2023-06-19T06:47:49;2.95;;;1.08;;
79005;SDS011;69202;45.498;-73.582;2023-06-19T06:50:15;1.42;;;1.00;;
79005;SDS011;69202;45.498;-73.582;2023-06-19T06:52:40;2.72;;;1.20;;
79005;SDS011;69202;45.498;-73.582;2023-06-19T06:55:06;4.13;;;1.13;;
79005;SDS011;69202;45.498;-73.582;2023-06-19T06:57:33;2.95;;;1.00;;
79005;SDS011;69202;45.498;-73.582;2023-06-19T06:59:59;1.58;;;0.93;;
79005;SDS011;69202;45.498;-73.582;2023-06-19T07:02:24;4.03;;;1.20;;
79005;SDS011;69202;45.498;-73.582;2023-06-19T07:04:50;2.15;;;1.20;;
79005;SDS011;69202;45.498;-73.582;2023-06-19T07:07:17;4.40;;;1.40;;
79005;SDS011;69202;45.498;-73.582;2023-06-19T07:09:43;3.15;;;1.40;;
79005;SDS011;69202;45.498;-73.582;2023-06-19T07:12:09;2.53;;;1.08;;
79005;SDS011;69202;45.498;-73.582;2023-06-19T07:14:35;2.65;;;1.20;;
79005;SDS011;69202;45.498;-73.582;2023-06-19T07:17:01;3.15;;;1.10;;
79005;SDS011;69202;45.498;-73.582;2023-06-19T07:19:26;2.80;;;1.25;;
79005;SDS011;69202;45.498;-73.582;2023-06-19T07:21:52;1.95;;;1.10;;
79005;SDS011;69202;45.498;-73.582;2023-06-19T07:24:18;3.55;;;1.00;;
79005;SDS011;69202;45.498;-73.582;2023-06-19T07:26:45;4.28;;;1.35;;
79005;SDS011;69202;45.498;-73.582;2023-06-19T07:29:12;2.20;;;1.17;;
79005;SDS011;69202;45.498;-73.582;2023-06-19T07:31:38;3.42;;;1.05;;
79005;SDS011;69202;45.498;-73.582;2023-06-19T07:34:04;4.55;;;1.30;;
79005;SDS011;69202;45.498;-73.582;2023-06-19T07:36:29;4.20;;;1.17;;
79005;SDS011;69202;45.498;-73.582;2023-06-19T07:38:55;2.13;;;1.10;;
79005;SDS011;69202;45.498;-73.582;2023-06-19T07:41:21;2.35;;;0.98;;
79005;SDS011;69202;45.498;-73.582;2023-06-19T07:43:47;3.25;;;1.20;;
79005;SDS011;69202;45.498;-73.582;2023-06-19T07:46:13;8.43;;;1.23;;
79005;SDS011;69202;45.498;-73.582;2023-06-19T07:48:40;2.80;;;1.20;;
79005;SDS011;69202;45.498;-73.582;2023-06-19T07:51:06;3.72;;;1.35;;
79005;SDS011;69202;45.498;-73.582;2023-06-19T07:53:32;3.58;;;1.13;;
79005;SDS011;69202;45.498;-73.582;2023-06-19T07:55:57;5.00;;;1.25;;
79005;SDS011;69202;45.498;-73.582;2023-06-19T07:58:23;2.90;;;1.20;;
79005;SDS011;69202;45.498;-73.582;2023-06-19T08:00:49;3.30;;;1.40;;
79005;SDS011;69202;45.498;-73.582;2023-06-19T08:03:15;3.10;;;1.10;;
79005;SDS011;69202;45.498;-73.582;2023-06-19T08:05:41;3.10;;;1.30;;
79005;SDS011;69202;45.498;-73.582;2023-06-19T08:08:07;2.17;;;1.20;;
79005;SDS011;69202;45.498;-73.582;2023-06-19T08:10:33;2.85;;;1.33;;
79005;SDS011;69202;45.498;-73.582;2023-06-19T08:12:58;1.70;;;1.02;;
79005;SDS011;69202;45.498;-73.582;2023-06-19T08:15:24;1.92;;;1.00;;
79005;SDS011;69202;45.498;-73.582;2023-06-19T08:17:50;2.90;;;1.35;;
79005;SDS011;69202;45.498;-73.582;2023-06-19T08:20:16;3.83;;;1.23;;
79005;SDS011;69202;45.498;-73.582;2023-06-19T08:22:42;3.58;;;1.13;;
79005;SDS011;69202;45.498;-73.582;2023-06-19T08:25:08;4.35;;;1.25;;
79005;SDS011;69202;45.498;-73.582;2023-06-19T08:27:34;3.05;;;1.20;;
79005;SDS011;69202;45.498;-73.582;2023-06-19T08:30:00;3.03;;;1.23;;
79005;SDS011;69202;45.498;-73.582;2023-06-19T08:32:26;2.25;;;1.25;;
79005;SDS011;69202;45.498;-73.582;2023-06-19T08:34:52;2.03;;;1.10;;
79005;SDS011;69202;45.498;-73.582;2023-06-19T08:37:17;3.47;;;1.20;;
79005;SDS011;69202;45.498;-73.582;2023-06-19T08:39:44;2.78;;;1.10;;
79005;SDS011;69202;45.498;-73.582;2023-06-19T08:42:09;3.10;;;1.30;;
79005;SDS011;69202;45.498;-73.582;2023-06-19T08:44:35;3.15;;;1.20;;
79005;SDS011;69202;45.498;-73.582;2023-06-19T08:47:02;6.30;;;1.17;;
79005;SDS011;69202;45.498;-73.582;2023-06-19T08:49:33;2.97;;;1.40;;
79005;SDS011;69202;45.498;-73.582;2023-06-19T08:52:03;2.03;;;1.20;;
79005;SDS011;69202;45.498;-73.582;2023-06-19T08:54:29;2.65;;;1.23;;
79005;SDS011;69202;45.498;-73.582;2023-06-19T08:56:55;3.42;;;1.20;;
79005;SDS011;69202;45.498;-73.582;2023-06-19T08:59:25;2.70;;;1.30;;
79005;SDS011;69202;45.498;-73.582;2023-06-19T09:01:52;3.72;;;1.08;;
79005;SDS011;69202;45.498;-73.582;2023-06-19T09:04:19;3.47;;;1.33;;
79005;SDS011;69202;45.498;-73.582;2023-06-19T09:06:47;7.22;;;1.30;;
79005;SDS011;69202;45.498;-73.582;2023-06-19T09:09:15;4.20;;;1.20;;
79005;SDS011;69202;45.498;-73.582;2023-06-19T09:11:42;4.15;;;1.58;;
79005;SDS011;69202;45.498;-73.582;2023-06-19T09:14:10;3.50;;;1.40;;
79005;SDS011;69202;45.498;-73.582;2023-06-19T09:16:37;2.80;;;1.20;;
79005;SDS011;69202;45.498;-73.582;2023-06-19T09:19:04;3.53;;;1.33;;
79005;SDS011;69202;45.498;-73.582;2023-06-19T09:21:30;2.22;;;1.27;;
79005;SDS011;69202;45.498;-73.582;2023-06-19T09:24:02;1.65;;;1.00;;
79005;SDS011;69202;45.498;-73.582;2023-06-19T09:26:31;1.48;;;0.90;;
79005;SDS011;69202;45.498;-73.582;2023-06-19T09:28:57;2.92;;;1.20;;
79005;SDS011;69202;45.498;-73.582;2023-06-19T09:31:33;4.03;;;1.30;;
79005;SDS011;69202;45.498;-73.582;2023-06-19T09:33:59;5.65;;;1.92;;
79005;SDS011;69202;45.498;-73.582;2023-06-19T09:36:25;1.83;;;1.27;;
79005;SDS011;69202;45.498;-73.582;2023-06-19T09:38:52;4.10;;;1.40;;
79005;SDS011;69202;45.498;-73.582;2023-06-19T09:41:18;3.40;;;1.55;;
79005;SDS011;69202;45.498;-73.582;2023-06-19T09:43:46;4.57;;;1.20;;
79005;SDS011;69202;45.498;-73.582;2023-06-19T09:46:14;2.60;;;1.30;;
79005;SDS011;69202;45.498;-73.582;2023-06-19T09:48:42;4.10;;;1.55;;
79005;SDS011;69202;45.498;-73.582;2023-06-19T09:51:20;2.85;;;1.85;;
79005;SDS011;69202;45.498;-73.582;2023-06-19T09:53:49;3.42;;;1.25;;
79005;SDS011;69202;45.498;-73.582;2023-06-19T09:56:16;4.15;;;1.35;;
79005;SDS011;69202;45.498;-73.582;2023-06-19T09:58:46;6.65;;;1.40;;
79005;SDS011;69202;45.498;-73.582;2023-06-19T10:01:15;4.75;;;1.75;;
79005;SDS011;69202;45.498;-73.582;2023-06-19T10:03:44;3.00;;;1.23;;
79005;SDS011;69202;45.498;-73.582;2023-06-19T10:06:13;2.58;;;1.50;;
79005;SDS011;69202;45.498;-73.582;2023-06-19T10:08:45;2.72;;;1.55;;
79005;SDS011;69202;45.498;-73.582;2023-06-19T10:11:11;5.40;;;1.70;;
79005;SDS011;69202;45.498;-73.582;2023-06-19T10:13:39;4.93;;;1.80;;
79005;SDS011;69202;45.498;-73.582;2023-06-19T10:16:39;7.05;;;1.63;;
79005;SDS011;69202;45.498;-73.582;2023-06-19T10:18:58;5.28;;;1.73;;
79005;SDS011;69202;45.498;-73.582;2023-06-19T10:21:24;2.70;;;1.25;;
79005;SDS011;69202;45.498;-73.582;2023-06-19T10:23:54;3.75;;;1.50;;
79005;SDS011;69202;45.498;-73.582;2023-06-19T10:26:28;5.03;;;1.58;;
79005;SDS011;69202;45.498;-73.582;2023-06-19T10:28:55;2.20;;;1.20;;
79005;SDS011;69202;45.498;-73.582;2023-06-19T10:31:21;6.68;;;1.60;;
79005;SDS011;69202;45.498;-73.582;2023-06-19T10:33:47;3.08;;;1.20;;
79005;SDS011;69202;45.498;-73.582;2023-06-19T10:38:41;2.92;;;1.30;;
79005;SDS011;69202;45.498;-73.582;2023-06-19T10:41:15;3.65;;;1.35;;
79005;SDS011;69202;45.498;-73.582;2023-06-19T10:43:58;6.43;;;1.55;;
79005;SDS011;69202;45.498;-73.582;2023-06-19T10:46:28;2.40;;;1.63;;
79005;SDS011;69202;45.498;-73.582;2023-06-19T10:48:56;5.13;;;1.70;;
79005;SDS011;69202;45.498;-73.582;2023-06-19T10:51:26;2.42;;;1.42;;
79005;SDS011;69202;45.498;-73.582;2023-06-19T10:53:55;4.13;;;1.40;;
79005;SDS011;69202;45.498;-73.582;2023-06-19T10:56:22;4.03;;;1.63;;
79005;SDS011;69202;45.498;-73.582;2023-06-19T10:58:56;4.93;;;1.95;;
79005;SDS011;69202;45.498;-73.582;2023-06-19T11:01:30;2.85;;;1.50;;
79005;SDS011;69202;45.498;-73.582;2023-06-19T11:04:05;2.50;;;1.00;;
79005;SDS011;69202;45.498;-73.582;2023-06-19T11:06:33;2.80;;;1.25;;
79005;SDS011;69202;45.498;-73.582;2023-06-19T11:08:59;5.32;;;1.20;;
79005;SDS011;69202;45.498;-73.582;2023-06-19T11:11:39;3.45;;;1.30;;
79005;SDS011;69202;45.498;-73.582;2023-06-19T11:14:11;2.60;;;1.15;;
79005;SDS011;69202;45.498;-73.582;2023-06-19T11:16:38;3.97;;;1.27;;
79005;SDS011;69202;45.498;-73.582;2023-06-19T11:19:14;6.45;;;1.05;;
79005;SDS011;69202;45.498;-73.582;2023-06-19T11:21:44;7.73;;;1.50;;
79005;SDS011;69202;45.498;-73.582;2023-06-19T11:24:12;5.10;;;1.17;;
79005;SDS011;69202;45.498;-73.582;2023-06-19T11:26:39;1.60;;;0.90;;
79005;SDS011;69202;45.498;-73.582;2023-06-19T11:31:44;2.87;;;0.87;;
79005;SDS011;69202;45.498;-73.582;2023-06-19T11:34:12;2.03;;;0.88;;
79005;SDS011;69202;45.498;-73.582;2023-06-19T11:36:39;1.83;;;0.80;;
79005;SDS011;69202;45.498;-73.582;2023-06-19T11:39:12;1.65;;;1.00;;
79005;SDS011;69202;45.498;-73.582;2023-06-19T11:41:39;2.33;;;1.10;;
79005;SDS011;69202;45.498;-73.582;2023-06-19T11:44:07;3.17;;;1.15;;
79005;SDS011;69202;45.498;-73.582;2023-06-19T11:46:36;3.17;;;1.00;;
79005;SDS011;69202;45.498;-73.582;2023-06-19T11:49:15;5.10;;;1.23;;
79005;SDS011;69202;45.498;-73.582;2023-06-19T11:51:43;2.97;;;1.20;;
79005;SDS011;69202;45.498;-73.582;2023-06-19T11:54:09;5.85;;;1.60;;
79005;SDS011;69202;45.498;-73.582;2023-06-19T11:56:36;5.50;;;1.70;;
79005;SDS011;69202;45.498;-73.582;2023-06-19T11:59:03;8.93;;;1.52;;
79005;SDS011;69202;45.498;-73.582;2023-06-19T12:01:31;8.65;;;1.75;;
79005;SDS011;69202;45.498;-73.582;2023-06-19T12:03:59;3.90;;;1.58;;
79005;SDS011;69202;45.498;-73.582;2023-06-19T12:06:26;5.18;;;1.95;;
79005;SDS011;69202;45.498;-73.582;2023-06-19T12:08:52;3.90;;;1.20;;
79005;SDS011;69202;45.498;-73.582;2023-06-19T12:11:18;8.05;;;1.40;;
79005;SDS011;69202;45.498;-73.582;2023-06-19T12:13:44;10.55;;;2.17;;
79005;SDS011;69202;45.498;-73.582;2023-06-19T12:16:10;9.18;;;1.33;;
79005;SDS011;69202;45.498;-73.582;2023-06-19T12:18:36;13.73;;;1.52;;
79005;SDS011;69202;45.498;-73.582;2023-06-19T12:21:03;12.95;;;1.80;;
79005;SDS011;69202;45.498;-73.582;2023-06-19T12:23:29;4.25;;;1.50;;
79005;SDS011;69202;45.498;-73.582;2023-06-19T12:25:55;2.00;;;0.95;;
79005;SDS011;69202;45.498;-73.582;2023-06-19T12:28:21;4.57;;;1.38;;
79005;SDS011;69202;45.498;-73.582;2023-06-19T12:30:48;7.00;;;1.33;;
79005;SDS011;69202;45.498;-73.582;2023-06-19T12:33:19;3.00;;;1.13;;
79005;SDS011;69202;45.498;-73.582;2023-06-19T12:35:46;5.75;;;1.40;;
79005;SDS011;69202;45.498;-73.582;2023-06-19T12:38:12;8.32;;;1.40;;
79005;SDS011;69202;45.498;-73.582;2023-06-19T12:40:39;5.93;;;1.17;;
79005;SDS011;69202;45.498;-73.582;2023-06-19T12:43:05;3.38;;;1.20;;
79005;SDS011;69202;45.498;-73.582;2023-06-19T12:45:32;14.40;;;1.65;;
79005;SDS011;69202;45.498;-73.582;2023-06-19T12:47:57;2.80;;;0.98;;
79005;SDS011;69202;45.498;-73.582;2023-06-19T12:50:23;5.68;;;1.67;;
79005;SDS011;69202;45.498;-73.582;2023-06-19T12:52:50;6.00;;;1.30;;
79005;SDS011;69202;45.498;-73.582;2023-06-19T12:55:16;2.20;;;1.00;;
79005;SDS011;69202;45.498;-73.582;2023-06-19T12:57:42;4.50;;;1.17;;
79005;SDS011;69202;45.498;-73.582;2023-06-19T13:00:10;7.60;;;1.00;;
79005;SDS011;69202;45.498;-73.582;2023-06-19T13:02:37;7.30;;;1.27;;
79005;SDS011;69202;45.498;-73.582;2023-06-19T13:05:05;9.73;;;1.30;;
79005;SDS011;69202;45.498;-73.582;2023-06-19T13:07:34;9.13;;;1.40;;
79005;SDS011;69202;45.498;-73.582;2023-06-19T13:10:00;9.77;;;1.60;;
79005;SDS011;69202;45.498;-73.582;2023-06-19T13:12:26;7.20;;;1.40;;
79005;SDS011;69202;45.498;-73.582;2023-06-19T13:14:51;4.63;;;1.10;;
79005;SDS011;69202;45.498;-73.582;2023-06-19T13:17:18;3.08;;;1.27;;
79005;SDS011;69202;45.498;-73.582;2023-06-19T13:19:44;2.45;;;1.05;;
79005;SDS011;69202;45.498;-73.582;2023-06-19T13:22:10;5.82;;;1.30;;
79005;SDS011;69202;45.498;-73.582;2023-06-19T13:24:36;9.73;;;1.83;;
79005;SDS011;69202;45.498;-73.582;2023-06-19T13:27:02;6.10;;;1.60;;
79005;SDS011;69202;45.498;-73.582;2023-06-19T13:29:28;2.45;;;1.13;;
79005;SDS011;69202;45.498;-73.582;2023-06-19T13:31:54;9.77;;;2.03;;
79005;SDS011;69202;45.498;-73.582;2023-06-19T13:34:20;5.82;;;1.13;;
79005;SDS011;69202;45.498;-73.582;2023-06-19T13:36:47;6.10;;;1.27;;
79005;SDS011;69202;45.498;-73.582;2023-06-19T13:39:13;3.75;;;0.80;;
79005;SDS011;69202;45.498;-73.582;2023-06-19T13:41:39;8.55;;;1.33;;
79005;SDS011;69202;45.498;-73.582;2023-06-19T13:44:05;5.00;;;1.63;;
79005;SDS011;69202;45.498;-73.582;2023-06-19T13:46:31;10.20;;;1.42;;
79005;SDS011;69202;45.498;-73.582;2023-06-19T13:48:57;4.05;;;1.17;;
79005;SDS011;69202;45.498;-73.582;2023-06-19T13:51:24;3.70;;;1.05;;
79005;SDS011;69202;45.498;-73.582;2023-06-19T13:53:51;3.70;;;1.45;;
79005;SDS011;69202;45.498;-73.582;2023-06-19T13:56:17;5.50;;;1.08;;
79005;SDS011;69202;45.498;-73.582;2023-06-19T13:58:43;5.05;;;1.10;;
79005;SDS011;69202;45.498;-73.582;2023-06-19T14:01:09;5.40;;;0.90;;
79005;SDS011;69202;45.498;-73.582;2023-06-19T14:03:36;4.47;;;1.10;;
79005;SDS011;69202;45.498;-73.582;2023-06-19T14:06:04;6.97;;;1.30;;
79005;SDS011;69202;45.498;-73.582;2023-06-19T14:08:29;7.10;;;1.02;;
79005;SDS011;69202;45.498;-73.582;2023-06-19T14:10:55;121.13;;;10.55;;
79005;SDS011;69202;45.498;-73.582;2023-06-19T14:13:22;16.17;;;1.83;;
79005;SDS011;69202;45.498;-73.582;2023-06-19T14:15:48;5.60;;;1.10;;
79005;SDS011;69202;45.498;-73.582;2023-06-19T14:18:14;3.63;;;1.65;;
79005;SDS011;69202;45.498;-73.582;2023-06-19T14:20:40;4.63;;;1.23;;
79005;SDS011;69202;45.498;-73.582;2023-06-19T14:23:07;11.20;;;1.50;;
79005;SDS011;69202;45.498;-73.582;2023-06-19T14:25:33;2.30;;;1.00;;
79005;SDS011;69202;45.498;-73.582;2023-06-19T14:27:59;3.03;;;1.30;;
79005;SDS011;69202;45.498;-73.582;2023-06-19T14:30:25;8.73;;;1.40;;